createdAt,value
2022-12-01T00:01:30.529Z,9.90
2022-12-01T00:03:59.875Z,9.90
2022-12-01T00:06:29.969Z,9.90
2022-12-01T00:09:19.498Z,9.90
2022-12-01T00:11:48.272Z,10.00
2022-12-01T00:14:16.963Z,10.00
2022-12-01T00:16:45.313Z,9.90
2022-12-01T00:19:14.837Z,10.00
2022-12-01T00:21:42.782Z,9.90
2022-12-01T00:24:11.909Z,9.90
2022-12-01T00:26:40.226Z,9.90
2022-12-01T00:29:08.203Z,9.70
2022-12-01T00:31:36.655Z,9.80
2022-12-01T00:34:09.455Z,9.90
2022-12-01T00:36:40.882Z,9.80
2022-12-01T00:39:09.473Z,9.70
2022-12-01T00:41:37.355Z,9.70
2022-12-01T00:44:05.750Z,9.70
2022-12-01T00:46:33.921Z,9.50
2022-12-01T00:49:01.907Z,9.60
2022-12-01T00:51:29.876Z,9.60
2022-12-01T00:53:59.442Z,9.60
2022-12-01T00:56:27.478Z,9.60
2022-12-01T00:58:55.378Z,9.70
2022-12-01T01:01:23.560Z,9.70
2022-12-01T01:03:51.656Z,9.50
2022-12-01T01:06:19.611Z,9.50
2022-12-01T01:08:47.487Z,9.50
2022-12-01T01:11:16.810Z,9.60
2022-12-01T01:13:44.738Z,9.50
2022-12-01T01:16:17.432Z,9.40
2022-12-01T01:18:45.519Z,9.50
2022-12-01T01:21:15.771Z,9.30
2022-12-01T01:23:44.286Z,9.40
2022-12-01T01:26:14.006Z,9.40
2022-12-01T01:28:43.759Z,9.40
2022-12-01T01:31:13.313Z,9.40
2022-12-01T01:33:41.565Z,9.30
2022-12-01T01:36:12.198Z,9.20
2022-12-01T01:38:40.181Z,9.20
2022-12-01T01:41:09.227Z,9.10
2022-12-01T01:43:45.535Z,9.10
2022-12-01T01:46:15.787Z,9.20
2022-12-01T01:48:48.047Z,9.10
2022-12-01T01:51:20.547Z,9.10
2022-12-01T01:53:51.317Z,9.10
2022-12-01T01:56:19.457Z,9.10
2022-12-01T01:58:49.012Z,9.10
2022-12-01T02:01:17.071Z,9.00
2022-12-01T02:03:47.311Z,9.00
2022-12-01T02:06:15.730Z,9.00
2022-12-01T02:08:43.684Z,9.00
2022-12-01T02:11:48.485Z,9.10
2022-12-01T02:14:32.175Z,9.10
2022-12-01T02:17:05.453Z,9.00
2022-12-01T02:19:55.586Z,8.90
2022-12-01T02:22:31.173Z,9.00
2022-12-01T02:25:19.325Z,9.00
2022-12-01T02:28:17.268Z,9.00
2022-12-01T02:30:50.032Z,9.00
2022-12-01T02:33:25.522Z,9.00
2022-12-01T02:36:01.209Z,9.00
2022-12-01T02:38:32.506Z,8.80
2022-12-01T02:41:06.350Z,8.80
2022-12-01T02:43:42.017Z,8.50
2022-12-01T02:46:16.831Z,8.40
2022-12-01T02:48:48.229Z,8.40
2022-12-01T02:51:21.918Z,8.40
2022-12-01T02:53:50.495Z,8.30
2022-12-01T02:56:22.211Z,8.10
2022-12-01T02:58:50.241Z,8.00
2022-12-01T03:01:33.225Z,7.90
2022-12-01T03:04:10.892Z,7.90
2022-12-01T03:06:49.317Z,7.80
2022-12-01T03:09:30.564Z,7.80
2022-12-01T03:12:10.276Z,7.90
2022-12-01T03:14:43.718Z,7.90
2022-12-01T03:17:17.462Z,7.90
2022-12-01T03:19:49.997Z,7.70
2022-12-01T03:22:24.923Z,7.80
2022-12-01T03:24:56.173Z,7.70
2022-12-01T03:27:28.576Z,7.50
2022-12-01T03:30:00.206Z,7.60
2022-12-01T03:32:32.722Z,7.70
2022-12-01T03:35:05.906Z,7.50
2022-12-01T03:37:37.802Z,7.40
2022-12-01T03:40:09.777Z,7.40
2022-12-01T03:42:42.284Z,7.40
2022-12-01T03:45:16.453Z,7.40
2022-12-01T03:47:46.179Z,7.40
2022-12-01T03:50:14.882Z,7.30
2022-12-01T03:52:50.482Z,7.30
2022-12-01T03:55:23.781Z,7.40
2022-12-01T03:57:57.311Z,7.40
2022-12-01T04:00:27.700Z,7.30
2022-12-01T04:02:58.814Z,7.30
2022-12-01T04:05:27.556Z,7.50
2022-12-01T04:07:57.590Z,7.40
2022-12-01T04:10:25.589Z,7.30
2022-12-01T04:12:58.916Z,7.40
2022-12-01T04:15:27.625Z,7.30
2022-12-01T04:17:56.966Z,7.30
2022-12-01T04:20:24.829Z,7.30
2022-12-01T04:22:52.732Z,7.20
2022-12-01T04:25:20.726Z,7.20
2022-12-01T04:27:48.937Z,7.30
2022-12-01T04:30:17.338Z,7.10
2022-12-01T04:32:45.603Z,7.20
2022-12-01T04:35:15.863Z,7.20
2022-12-01T04:37:43.832Z,7.30
2022-12-01T04:40:12.722Z,7.10
2022-12-01T04:42:40.585Z,6.90
2022-12-01T04:45:09.794Z,6.90
2022-12-01T04:47:37.864Z,7.00
2022-12-01T04:50:06.960Z,7.10
2022-12-01T04:52:39.338Z,7.10
2022-12-01T04:55:08.470Z,7.30
2022-12-01T04:57:36.620Z,7.30
2022-12-01T05:00:13.081Z,7.30
2022-12-01T05:02:43.325Z,7.30
2022-12-01T05:05:11.591Z,7.30
2022-12-01T05:07:41.652Z,7.30
2022-12-01T05:10:10.334Z,7.10
2022-12-01T05:12:38.282Z,7.20
2022-12-01T05:15:07.243Z,7.20
2022-12-01T05:17:37.138Z,7.20
2022-12-01T05:20:26.410Z,7.20
2022-12-01T05:23:08.119Z,7.00
2022-12-01T05:25:37.725Z,7.10
2022-12-01T05:28:06.603Z,7.10
2022-12-01T05:30:38.118Z,7.00
2022-12-01T05:33:09.063Z,6.90
2022-12-01T05:35:37.909Z,7.00
2022-12-01T05:38:08.167Z,7.00
2022-12-01T05:40:39.058Z,7.10
2022-12-01T05:43:07.800Z,7.10
2022-12-01T05:45:36.189Z,7.10
2022-12-01T05:48:07.009Z,7.10
2022-12-01T05:50:38.531Z,7.00
2022-12-01T05:53:09.736Z,7.10
2022-12-01T05:55:37.677Z,7.10
2022-12-01T05:58:05.615Z,6.90
2022-12-01T06:00:33.659Z,6.80
2022-12-01T06:03:10.519Z,6.90
2022-12-01T06:05:38.600Z,6.80
2022-12-01T06:08:14.450Z,6.70
2022-12-01T06:10:46.992Z,6.40
2022-12-01T06:13:22.268Z,6.60
2022-12-01T06:16:19.514Z,6.70
2022-12-01T06:19:02.293Z,6.70
2022-12-01T06:21:34.538Z,6.40
2022-12-01T06:24:07.042Z,6.30
2022-12-01T06:26:36.242Z,6.50
2022-12-01T06:29:04.076Z,6.40
2022-12-01T06:31:31.915Z,6.40
2022-12-01T06:33:59.799Z,6.30
2022-12-01T06:36:27.788Z,6.10
2022-12-01T06:38:55.624Z,6.30
2022-12-01T06:41:24.794Z,6.40
2022-12-01T06:43:52.622Z,6.40
2022-12-01T06:46:20.507Z,6.50
2022-12-01T06:48:49.328Z,6.40
2022-12-01T06:51:17.116Z,6.50
2022-12-01T06:53:45.096Z,6.60
2022-12-01T06:56:13.395Z,6.60
2022-12-01T06:58:43.054Z,6.70
2022-12-01T07:01:12.401Z,6.70
2022-12-01T07:03:40.917Z,6.80
2022-12-01T07:06:08.875Z,6.70
2022-12-01T07:08:36.873Z,6.60
2022-12-01T07:11:07.677Z,6.70
2022-12-01T07:13:35.979Z,6.70
2022-12-01T07:16:35.216Z,6.80
2022-12-01T07:19:24.391Z,6.70
2022-12-01T07:21:52.724Z,6.70
2022-12-01T07:24:20.761Z,6.50
2022-12-01T07:26:49.415Z,6.50
2022-12-01T07:29:17.798Z,6.40
2022-12-01T07:31:47.200Z,6.30
2022-12-01T07:34:15.129Z,6.20
2022-12-01T07:36:44.654Z,6.30
2022-12-01T07:39:25.342Z,6.30
2022-12-01T07:41:55.707Z,6.30
2022-12-01T07:44:27.455Z,6.20
2022-12-01T07:47:08.621Z,6.30
2022-12-01T07:49:42.802Z,6.30
2022-12-01T07:52:11.293Z,6.30
2022-12-01T07:54:55.803Z,6.20
2022-12-01T07:57:26.024Z,6.30
2022-12-01T08:00:08.681Z,6.20
2022-12-01T08:02:38.713Z,6.20
2022-12-01T08:05:09.480Z,6.20
2022-12-01T08:07:38.605Z,6.30
2022-12-01T08:10:07.569Z,6.20
2022-12-01T08:12:48.352Z,6.20
2022-12-01T08:15:19.259Z,6.10
2022-12-01T08:17:56.031Z,5.90
2022-12-01T08:20:36.241Z,6.00
2022-12-01T08:23:04.897Z,6.00
2022-12-01T08:25:35.627Z,5.90
2022-12-01T08:28:14.801Z,5.90
2022-12-01T08:30:43.592Z,5.90
2022-12-01T08:33:13.829Z,5.70
2022-12-01T08:35:55.978Z,5.70
2022-12-01T08:41:25.264Z,5.70
2022-12-01T08:44:19.361Z,5.60
2022-12-01T08:46:55.043Z,5.70
2022-12-01T08:49:46.424Z,5.60
2022-12-01T08:52:28.255Z,5.70
2022-12-01T08:55:03.816Z,5.70
2022-12-01T08:57:42.534Z,5.50
2022-12-01T09:00:32.633Z,5.60
2022-12-01T09:03:28.363Z,5.50
2022-12-01T09:09:46.207Z,5.70
2022-12-01T09:12:34.217Z,5.80
2022-12-01T09:15:02.488Z,5.90
2022-12-01T09:18:07.336Z,5.90
2022-12-01T09:20:45.426Z,6.00
2022-12-01T09:23:22.262Z,5.90
2022-12-01T09:26:14.456Z,5.80
2022-12-01T09:28:48.989Z,6.00
2022-12-01T09:31:24.852Z,5.80
2022-12-01T09:34:09.447Z,5.90
2022-12-01T09:36:49.357Z,6.00
2022-12-01T09:39:35.638Z,6.00
2022-12-01T09:42:09.747Z,6.10
2022-12-01T09:44:42.718Z,6.20
2022-12-01T09:47:23.604Z,6.10
2022-12-01T09:49:57.345Z,6.10
2022-12-01T09:52:33.844Z,6.10
2022-12-01T09:55:20.273Z,6.20
2022-12-01T09:57:58.583Z,6.20
2022-12-01T10:00:43.760Z,6.30
2022-12-01T10:03:25.876Z,6.10
2022-12-01T10:06:25.898Z,6.20
2022-12-01T10:09:00.796Z,6.50
2022-12-01T10:11:37.837Z,6.30
2022-12-01T10:14:20.314Z,6.50
2022-12-01T10:17:19.287Z,6.40
2022-12-01T10:20:02.632Z,6.60
2022-12-01T10:22:53.881Z,6.50
2022-12-01T10:25:24.011Z,6.70
2022-12-01T10:28:25.719Z,6.60
2022-12-01T10:30:56.836Z,6.50
2022-12-01T10:33:27.694Z,6.50
2022-12-01T10:36:03.628Z,6.60
2022-12-01T10:38:36.898Z,6.60
2022-12-01T10:41:06.913Z,6.60
2022-12-01T10:43:45.974Z,6.60
2022-12-01T10:46:24.802Z,6.70
2022-12-01T10:48:55.491Z,6.80
2022-12-01T10:51:23.982Z,6.80
2022-12-01T10:53:58.753Z,6.70
2022-12-01T10:56:28.253Z,6.70
2022-12-01T10:58:59.495Z,6.70
2022-12-01T11:01:36.474Z,6.80
2022-12-01T11:04:08.505Z,6.80
2022-12-01T11:06:37.068Z,6.90
2022-12-01T11:09:07.856Z,6.90
2022-12-01T11:11:38.084Z,6.90
2022-12-01T11:14:18.909Z,6.90
2022-12-01T11:16:48.946Z,6.90
2022-12-01T11:19:28.144Z,7.00
2022-12-01T11:21:58.326Z,7.00
2022-12-01T11:24:35.401Z,7.00
2022-12-01T11:27:03.500Z,7.00
2022-12-01T11:29:37.693Z,7.10
2022-12-01T11:32:17.871Z,7.10
2022-12-01T11:34:52.113Z,7.20
2022-12-01T11:37:23.439Z,7.20
2022-12-01T11:39:53.062Z,7.30
2022-12-01T11:42:25.903Z,7.20
2022-12-01T11:44:57.893Z,7.20
2022-12-01T11:47:27.643Z,7.10
2022-12-01T11:50:27.522Z,7.40
2022-12-01T11:52:57.817Z,7.40
2022-12-01T11:55:45.785Z,7.20
2022-12-01T11:58:13.840Z,7.00
2022-12-01T12:00:48.700Z,7.10
2022-12-01T12:03:47.998Z,6.90
2022-12-01T12:06:42.458Z,7.00
2022-12-01T12:09:29.523Z,7.00
2022-12-01T12:12:12.172Z,7.10
2022-12-01T12:14:49.815Z,7.30
2022-12-01T12:17:42.932Z,7.30
2022-12-01T12:20:29.150Z,7.30
2022-12-01T12:23:09.412Z,7.40
2022-12-01T12:25:52.099Z,7.50
2022-12-01T12:28:32.021Z,7.40
2022-12-01T12:31:11.138Z,7.40
2022-12-01T12:34:33.246Z,7.40
2022-12-01T12:37:17.636Z,7.40
2022-12-01T12:40:04.676Z,7.40
2022-12-01T12:42:42.680Z,7.40
2022-12-01T12:45:20.996Z,7.50
2022-12-01T12:48:02.992Z,7.50
2022-12-01T12:51:08.558Z,7.60
2022-12-01T12:54:14.756Z,7.50
2022-12-01T12:57:18.658Z,7.60
2022-12-01T12:59:53.947Z,7.70
2022-12-01T13:02:32.700Z,7.80
2022-12-01T13:05:17.805Z,7.70
2022-12-01T13:08:27.760Z,7.40
2022-12-01T13:11:04.791Z,7.40
2022-12-01T13:13:58.177Z,7.20
2022-12-01T13:17:07.223Z,7.20
2022-12-01T13:21:03.307Z,7.40
2022-12-01T13:23:56.779Z,7.20
2022-12-01T13:26:24.792Z,7.20
2022-12-01T13:36:46.749Z,7.20
2022-12-01T13:39:42.281Z,7.20
2022-12-01T13:42:24.047Z,7.00
2022-12-01T14:01:32.543Z,7.10
2022-12-01T14:12:05.644Z,7.00
2022-12-01T14:14:51.269Z,7.00
2022-12-01T14:24:31.658Z,7.20
2022-12-01T14:31:37.400Z,7.00
2022-12-01T14:38:08.302Z,7.00
2022-12-01T14:41:28.562Z,7.00
2022-12-01T14:44:54.435Z,7.10
2022-12-01T14:48:30.309Z,7.10
2022-12-01T14:51:56.368Z,7.00
2022-12-01T14:54:43.975Z,7.10
2022-12-01T15:01:43.139Z,7.10
2022-12-01T15:04:11.118Z,7.00
2022-12-01T15:07:41.771Z,7.20
2022-12-01T15:10:18.209Z,7.00
2022-12-01T15:12:52.149Z,7.00
2022-12-01T15:15:26.659Z,6.90
2022-12-01T15:18:01.768Z,6.90
2022-12-01T15:20:46.362Z,7.00
2022-12-01T15:23:52.158Z,6.90
2022-12-01T15:26:29.056Z,6.90
2022-12-01T15:30:26.929Z,6.90
2022-12-01T15:33:49.739Z,7.00
2022-12-01T15:51:45.005Z,7.10
2022-12-01T16:10:41.400Z,6.70
2022-12-01T16:14:01.670Z,6.80
2022-12-01T16:32:19.206Z,6.80
2022-12-01T16:34:47.605Z,6.60
2022-12-01T16:37:15.999Z,6.60
2022-12-01T16:39:43.873Z,6.60
2022-12-01T16:42:16.560Z,6.50
2022-12-01T16:44:53.285Z,6.60
2022-12-01T16:47:24.780Z,6.60
2022-12-01T16:49:53.424Z,6.60
2022-12-01T16:52:43.610Z,6.40
2022-12-01T16:55:28.304Z,6.50
2022-12-01T16:57:58.805Z,6.40
2022-12-01T17:00:27.566Z,6.50
2022-12-01T17:03:22.632Z,6.50
2022-12-01T17:05:51.375Z,6.50
2022-12-01T17:08:22.977Z,6.60
2022-12-01T17:10:52.375Z,6.50
2022-12-01T17:13:21.649Z,6.50
2022-12-01T17:15:51.910Z,6.60
2022-12-01T17:18:26.371Z,6.90
2022-12-01T17:20:59.534Z,7.00
2022-12-01T17:23:27.593Z,7.10
2022-12-01T17:25:55.607Z,7.00
2022-12-01T17:28:23.817Z,7.00
2022-12-01T17:30:52.053Z,6.80
2022-12-01T17:33:21.707Z,6.60
2022-12-01T17:35:54.217Z,6.70
2022-12-01T17:38:22.168Z,6.80
2022-12-01T17:41:01.308Z,6.70
2022-12-01T17:43:31.658Z,6.70
2022-12-01T17:45:59.761Z,6.70
2022-12-01T17:48:29.691Z,6.70
2022-12-01T17:50:59.969Z,6.60
2022-12-01T17:53:28.256Z,6.60
2022-12-01T17:55:56.364Z,6.80
2022-12-01T17:58:24.603Z,6.70
2022-12-01T18:00:54.056Z,6.70
2022-12-01T18:03:22.824Z,6.80
2022-12-01T18:05:58.095Z,6.50
2022-12-01T18:08:26.773Z,6.60
2022-12-01T18:10:55.131Z,6.50
2022-12-01T18:13:24.268Z,6.60
2022-12-01T18:15:52.642Z,6.50
2022-12-01T18:18:20.590Z,6.60
2022-12-01T18:20:48.758Z,6.60
2022-12-01T18:23:18.220Z,6.40
2022-12-01T18:25:46.230Z,6.60
2022-12-01T18:28:14.276Z,6.50
2022-12-01T18:30:42.356Z,6.60
2022-12-01T18:33:12.459Z,6.60
2022-12-01T18:35:45.776Z,6.60
2022-12-01T18:38:31.731Z,6.80
2022-12-01T18:41:02.115Z,6.70
2022-12-01T18:43:31.786Z,6.80
2022-12-01T18:46:01.737Z,6.90
2022-12-01T18:48:33.639Z,7.00
2022-12-01T18:51:24.975Z,6.90
2022-12-01T18:54:02.275Z,6.90
2022-12-01T18:56:32.917Z,7.00
2022-12-01T18:59:03.248Z,6.90
2022-12-01T19:01:33.049Z,6.90
2022-12-01T19:04:01.873Z,6.90
2022-12-01T19:06:31.013Z,6.90
2022-12-01T19:09:11.159Z,6.90
2022-12-01T19:11:49.880Z,6.80
2022-12-01T19:14:19.718Z,6.90
2022-12-01T19:16:47.836Z,6.80
2022-12-01T19:19:16.213Z,6.70
2022-12-01T19:21:45.401Z,6.60
2022-12-01T19:24:14.148Z,6.60
2022-12-01T19:26:53.858Z,6.70
2022-12-01T19:29:24.056Z,6.80
2022-12-01T19:31:55.088Z,6.80
2022-12-01T19:34:23.567Z,6.90
2022-12-01T19:36:53.781Z,6.80
2022-12-01T19:39:25.456Z,6.80
2022-12-01T19:41:55.259Z,6.80
2022-12-01T19:44:29.343Z,6.80
2022-12-01T19:46:57.385Z,6.70
2022-12-01T19:49:25.664Z,6.80
2022-12-01T19:51:54.887Z,6.70
2022-12-01T19:54:23.106Z,6.60
2022-12-01T19:56:51.338Z,6.60
2022-12-01T19:59:20.907Z,6.60
2022-12-01T20:01:49.066Z,6.60
2022-12-01T20:04:17.158Z,6.70
2022-12-01T20:06:56.659Z,6.70
2022-12-01T20:09:26.983Z,6.80
2022-12-01T20:12:29.276Z,6.70
2022-12-01T20:14:58.706Z,6.70
2022-12-01T20:17:26.653Z,6.70
2022-12-01T20:19:54.839Z,6.70
2022-12-01T20:22:22.880Z,6.60
2022-12-01T20:29:07.346Z,6.60
2022-12-01T20:31:38.199Z,6.70
2022-12-01T20:34:12.418Z,6.60
2022-12-01T20:47:10.173Z,6.50
2022-12-01T20:49:38.477Z,6.60
2022-12-01T20:56:14.542Z,6.60
2022-12-01T21:02:27.568Z,6.60
2022-12-01T21:14:00.683Z,6.50
2022-12-01T21:16:34.021Z,6.50
2022-12-01T21:19:19.512Z,6.40
2022-12-01T21:22:25.891Z,6.30
2022-12-01T21:25:19.247Z,6.20
2022-12-01T21:29:00.195Z,6.50
2022-12-01T21:32:20.629Z,6.40
2022-12-01T21:34:56.893Z,6.50
2022-12-01T21:37:31.609Z,6.50
2022-12-01T21:43:25.679Z,6.60
2022-12-01T21:49:23.029Z,6.40
2022-12-01T21:52:08.554Z,6.40
2022-12-01T21:54:49.859Z,6.30
2022-12-01T21:57:42.733Z,6.40
2022-12-01T22:01:09.764Z,6.50
2022-12-01T22:09:21.648Z,6.70
2022-12-01T22:11:04.423Z,6.70
2022-12-01T22:17:21.860Z,6.50
2022-12-01T22:20:09.672Z,6.50
2022-12-01T22:23:05.586Z,6.40
2022-12-01T22:28:53.688Z,6.30
2022-12-01T22:31:59.510Z,6.50
2022-12-01T22:35:00.174Z,6.40
2022-12-01T22:38:03.726Z,6.30
2022-12-01T22:41:09.332Z,6.30
2022-12-01T22:44:21.089Z,6.30
2022-12-01T22:47:13.494Z,6.30
2022-12-01T22:50:16.040Z,6.20
2022-12-01T22:53:05.915Z,6.30
2022-12-01T22:55:37.318Z,6.30
2022-12-01T22:58:39.014Z,6.50
2022-12-01T23:01:47.721Z,6.30
2022-12-01T23:04:50.249Z,6.30
2022-12-01T23:08:18.595Z,6.30
2022-12-01T23:11:08.989Z,6.30
2022-12-01T23:13:58.621Z,6.10
2022-12-01T23:16:27.104Z,6.30
2022-12-01T23:19:07.051Z,6.30
2022-12-01T23:21:44.617Z,6.30
2022-12-01T23:24:40.898Z,6.20
2022-12-01T23:31:02.889Z,6.20
2022-12-01T23:33:38.263Z,6.00
2022-12-01T23:36:20.268Z,6.10
2022-12-01T23:39:40.473Z,6.10
2022-12-01T23:42:04.306Z,6.00
2022-12-01T23:45:22.814Z,6.10
2022-12-01T23:51:19.643Z,6.10
2022-12-01T23:54:04.523Z,6.10
2022-12-01T23:57:14.239Z,6.20
